Time;durP1;ratioP1;P1;durP2;ratioP2;P2;SDS_P1;SDS_P2;PMS_P1;PMS_P2;Temp;Humidity;BMP_temperature;BMP_pressure;BME280_temperature;BME280_humidity;BME280_pressure;Samples;Min_cycle;Max_cycle;Signal;HPM_P1;HPM_P2
2022/03/18 00:04:59;;;;;;;;;;;;;;;;;;10532324;27;20350;-67
2022/03/18 00:10:02;;;;;;;;;;;;;;;;;;10549697;27;20448;-66
2022/03/18 00:15:04;;;;;;;;;;;;;;;;;;10551851;27;19920;-67
2022/03/18 00:20:07;;;;;;;;;;;;;;;;;;10551647;27;19980;-66
2022/03/18 00:25:12;;;;;;;57.83;21.30;;;;;;;;;;10529786;28;20344;-68
2022/03/18 00:30:16;;;;;;;58.58;21.60;;;;;;;;;;10577609;22;20452;-73
2022/03/18 00:35:20;;;;;;;60.58;20.25;;;;;;;;;;10596549;27;20429;-74
2022/03/18 00:40:23;;;;;;;;;;;;;;;;;;10592750;27;20039;-73
2022/03/18 00:45:29;;;;;;;49.67;19.70;;;;;;;;;;10597081;27;19928;-72
2022/03/18 00:55:52;;;;;;;77.53;34.45;;;;;;;;;;10597044;27;20414;-73
2022/03/18 01:00:57;;;;;;;77.25;35.20;;;;;;;;;;10580349;27;20414;-74
2022/03/18 01:06:00;;;;;;;65.35;24.40;;;;;;;;;;10584540;27;20059;-73
2022/03/18 01:11:05;;;;;;;57.03;21.80;;;;;;;;;;10606624;27;20035;-74
2022/03/18 01:16:09;;;;;;;56.17;20.42;;;;;;;;;;10582647;27;20076;-72
2022/03/18 01:21:12;;;;;;;52.88;20.65;;;;;;;;;;10600860;27;20079;-73
2022/03/18 01:26:16;;;;;;;53.95;21.00;;;;;;;;;;10577945;27;20046;-72
2022/03/18 01:31:21;;;;;;;50.90;19.40;;;;;;;;;;10594599;27;20050;-72
2022/03/18 01:36:25;;;;;;;56.53;21.08;;;;;;;;;;10574759;27;20492;-72
2022/03/18 01:41:28;;;;;;;56.72;18.80;;;;;;;;;;10588760;27;20359;-74
2022/03/18 01:46:32;;;;;;;56.22;20.90;;;;;;;;;;10592746;27;20031;-72
2022/03/18 01:51:35;;;;;;;49.72;19.48;;;;;;;;;;10592825;27;20031;-73
2022/03/18 01:56:38;;;;;;;53.80;19.47;;;;;;;;;;10589522;27;20504;-73
2022/03/18 02:01:42;;;;;;;58.28;21.73;;;;;;;;;;10604571;27;20040;-74
2022/03/18 02:06:47;;;;;;;58.08;21.80;;;;;;;;;;10594120;27;20522;-73
2022/03/18 02:11:50;;;;;;;54.70;19.98;;;;;;;;;;10595773;27;20036;-72
2022/03/18 02:16:54;;;;;;;56.65;21.10;;;;;;;;;;10606391;27;20210;-74
2022/03/18 02:21:58;;;;;;;59.33;20.85;;;;;;;;;;10605081;27;20072;-73
2022/03/18 02:27:02;;;;;;;54.58;19.10;;;;;;;;;;10589885;27;20027;-72
2022/03/18 02:32:05;;;;;;;;;;;;;;;;;;10594375;27;20084;-73
2022/03/18 02:37:08;;;;;;;55.67;20.88;;;;;;;;;;10578599;27;19919;-72
2022/03/18 02:42:12;;;;;;;56.33;20.37;;;;;;;;;;10596161;27;20482;-74
2022/03/18 02:47:15;;;;;;;58.47;21.10;;;;;;;;;;10605868;27;20048;-74
2022/03/18 02:52:19;;;;;;;53.50;21.52;;;;;;;;;;10593586;27;20096;-74
2022/03/18 02:57:23;;;;;;;53.35;21.52;;;;;;;;;;10609300;27;20039;-74
2022/03/18 03:02:26;;;;;;;58.40;21.73;;;;;;;;;;10583548;27;20104;-73
2022/03/18 03:12:51;;;;;;;54.40;20.33;;;;;;;;;;10591114;27;20055;-73
2022/03/18 03:17:54;;;;;;;60.75;22.80;;;;;;;;;;10607361;27;20042;-73
2022/03/18 03:22:58;;;;;;;;;;;;;;;;;;10611649;27;20057;-73
2022/03/18 03:28:00;;;;;;;;;;;;;;;;;;10602824;27;19948;-73
2022/03/18 03:33:03;;;;;;;;;;;;;;;;;;10612324;27;19972;-71
2022/03/18 03:38:06;;;;;;;;;;;;;;;;;;10583905;27;20306;-73
2022/03/18 03:43:09;;;;;;;;;;;;;;;;;;10607523;27;20331;-73
2022/03/18 03:48:12;;;;;;;;;;;;;;;;;;10601998;27;19919;-72
2022/03/18 03:53:14;;;;;;;;;;;;;;;;;;10605888;27;20382;-74
2022/03/18 03:58:17;;;;;;;;;;;;;;;;;;10584084;27;20290;-72
2022/03/18 04:03:19;;;;;;;;;;;;;;;;;;10586401;27;20098;-75
2022/03/18 04:08:22;;;;;;;;;;;;;;;;;;10607906;27;19923;-73
2022/03/18 04:13:24;;;;;;;;;;;;;;;;;;10591533;27;19919;-74
2022/03/18 04:18:27;;;;;;;;;;;;;;;;;;10592556;27;19930;-72
2022/03/18 04:23:30;;;;;;;;;;;;;;;;;;10611664;27;19926;-72
2022/03/18 04:28:32;;;;;;;;;;;;;;;;;;10623097;27;19926;-72
2022/03/18 04:33:36;;;;;;;;;;;;;;;;;;10635159;27;19987;-72
2022/03/18 04:38:38;;;;;;;;;;;;;;;;;;10597271;27;19919;-73
2022/03/18 04:43:46;;;;;;;;;;;;;;;;;;10599081;27;20363;-73
2022/03/18 04:48:48;;;;;;;;;;;;;;;;;;10583977;27;20410;-72
2022/03/18 04:53:51;;;;;;;;;;;;;;;;;;10593920;27;19920;-73
2022/03/18 04:58:53;;;;;;;;;;;;;;;;;;10598816;27;19927;-72
2022/03/18 05:03:56;;;;;;;;;;;;;;;;;;10609833;27;19926;-72
2022/03/18 05:09:02;;;;;;;;;;;;;;;;;;10606848;27;20278;-72
2022/03/18 05:14:07;;;;;;;51.15;19.38;;;;;;;;;;10607321;27;19920;-73
2022/03/18 05:19:10;;;;;;;52.50;18.92;;;;;;;;;;10586290;27;20108;-72
2022/03/18 05:24:13;;;;;;;52.87;19.67;;;;;;;;;;10588719;27;20546;-74
2022/03/18 05:29:17;;;;;;;50.63;18.57;;;;;;;;;;10575409;27;20069;-73
2022/03/18 05:34:21;;;;;;;50.80;18.42;;;;;;;;;;10585930;27;20046;-73
2022/03/18 05:39:24;;;;;;;49.42;17.45;;;;;;;;;;10579579;27;20058;-73
2022/03/18 05:44:29;;;;;;;52.75;19.00;;;;;;;;;;10599812;27;20111;-72
2022/03/18 05:49:34;;;;;;;50.15;18.73;;;;;;;;;;10592429;27;20046;-71
2022/03/18 05:54:42;;;;;;;56.33;19.67;;;;;;;;;;10590929;27;20058;-73
2022/03/18 05:59:47;;;;;;;50.42;19.52;;;;;;;;;;10577664;28;20046;-72
2022/03/18 06:04:51;;;;;;;44.55;15.57;;;;;;;;;;10572025;28;20073;-73
2022/03/18 06:15:15;;;;;;;57.47;19.73;;;;;;;;;;10594365;28;20110;-73
2022/03/18 06:20:17;;;;;;;;;;;;;;;;;;10597172;27;20051;-73
2022/03/18 06:25:20;;;;;;;42.92;16.35;;;;;;;;;;10602359;27;19954;-74
2022/03/18 06:30:25;;;;;;;40.80;15.63;;;;;;;;;;10604458;22;20153;-75
2022/03/18 06:35:28;;;;;;;41.90;15.15;;;;;;;;;;10600472;27;20483;-78
2022/03/18 06:40:31;;;;;;;45.80;17.15;;;;;;;;;;10611004;27;20125;-77
2022/03/18 06:45:35;;;;;;;40.65;16.35;;;;;;;;;;10647866;27;20047;-78
2022/03/18 06:50:38;;;;;;;37.58;16.00;;;;;;;;;;10647195;27;20095;-77
2022/03/18 06:55:41;;;;;;;44.15;16.65;;;;;;;;;;10642349;27;20060;-77
2022/03/18 07:00:46;;;;;;;38.50;16.48;;;;;;;;;;10648195;27;20035;-77
2022/03/18 07:05:49;;;;;;;43.13;16.55;;;;;;;;;;10626671;27;20030;-77
2022/03/18 07:10:52;;;;;;;46.97;22.65;;;;;;;;;;10621812;27;20422;-76
2022/03/18 07:17:54;;;;;;;37.30;16.63;;;;;;;;;;10624941;27;20035;-77
2022/03/18 07:21:19;;;;;;;38.90;14.70;;;;;;;;;;10635821;27;20101;-77
2022/03/18 07:26:23;;;;;;;36.70;17.00;;;;;;;;;;10598430;27;20046;-72
2022/03/18 07:31:28;;;;;;;35.03;16.63;;;;;;;;;;10600931;27;20036;-71
2022/03/18 07:36:32;;;;;;;38.05;16.75;;;;;;;;;;10584556;27;20043;-70
2022/03/18 07:41:35;;;;;;;;;;;;;;;;;;10614133;27;20037;-81
2022/03/18 07:46:40;;;;;;;33.17;16.30;;;;;;;;;;10616553;27;19923;-77
2022/03/18 07:51:43;;;;;;;37.15;16.85;;;;;;;;;;10601665;27;20043;-78
2022/03/18 07:56:46;;;;;;;43.50;18.10;;;;;;;;;;10613306;27;20047;-78
2022/03/18 08:01:51;;;;;;;35.30;17.03;;;;;;;;;;10613484;27;20035;-79
2022/03/18 08:06:55;;;;;;;31.10;14.43;;;;;;;;;;10619948;27;20413;-78
2022/03/18 08:11:58;;;;;;;36.83;15.80;;;;;;;;;;10601291;27;20032;-79
2022/03/18 08:17:02;;;;;;;34.20;16.50;;;;;;;;;;10600493;27;20043;-78
2022/03/18 08:22:07;;;;;;;36.75;16.33;;;;;;;;;;10607304;27;20572;-78
2022/03/18 08:27:09;;;;;;;33.22;16.67;;;;;;;;;;10596494;27;20039;-78
2022/03/18 08:32:15;;;;;;;34.95;17.48;;;;;;;;;;10598496;27;20074;-78
2022/03/18 08:37:56;;;;;;;35.67;17.55;;;;;;;;;;10607563;27;20060;-79
2022/03/18 08:42:44;;;;;;;30.50;17.60;;;;;;;;;;10592563;27;20063;-78
2022/03/18 08:47:50;;;;;;;33.47;18.05;;;;;;;;;;10612360;27;20081;-79
2022/03/18 08:52:54;;;;;;;;;;;;;;;;;;10631515;27;20043;-80
2022/03/18 08:57:57;;;;;;;;;;;;;;;;;;10589221;27;21474;-80
2022/03/18 09:03:01;;;;;;;;;;;;;;;;;;10591592;27;20419;-80
2022/03/18 09:08:05;;;;;;;;;;;;;;;;;;10611594;27;19919;-80
2022/03/18 09:13:09;;;;;;;36.30;19.25;;;;;;;;;;10595472;27;19974;-78
2022/03/18 09:18:14;;;;;;;36.53;19.95;;;;;;;;;;10610279;27;20092;-79
2022/03/18 09:23:17;;;;;;;34.17;19.70;;;;;;;;;;10595422;27;20065;-78
2022/03/18 09:28:22;;;;;;;34.90;19.98;;;;;;;;;;10592447;27;20063;-80
2022/03/18 09:33:26;;;;;;;36.72;19.80;;;;;;;;;;10591387;27;20039;-79
2022/03/18 09:38:29;;;;;;;36.85;21.58;;;;;;;;;;10595705;27;20031;-79
2022/03/18 09:43:35;;;;;;;34.90;21.05;;;;;;;;;;10609381;27;20053;-79
2022/03/18 09:48:38;;;;;;;;;;;;;;;;;;10597764;27;20027;-77
2022/03/18 09:53:41;;;;;;;35.85;20.77;;;;;;;;;;10617347;27;20312;-79
2022/03/18 09:58:46;;;;;;;34.25;20.77;;;;;;;;;;10601049;27;20043;-78
2022/03/18 10:03:50;;;;;;;37.03;20.40;;;;;;;;;;10595304;27;20024;-78
2022/03/18 10:08:55;;;;;;;37.95;20.70;;;;;;;;;;10621133;27;20103;-77
2022/03/18 10:14:01;;;;;;;37.65;20.45;;;;;;;;;;10602726;27;20067;-80
2022/03/18 10:19:05;;;;;;;34.58;20.33;;;;;;;;;;10595492;27;20099;-78
2022/03/18 10:24:10;;;;;;;31.70;18.85;;;;;;;;;;10603704;27;20035;-80
2022/03/18 10:29:15;;;;;;;35.00;20.90;;;;;;;;;;10596293;27;20091;-78
2022/03/18 10:39:39;;;;;;;32.83;20.88;;;;;;;;;;10583063;22;19920;-70
2022/03/18 10:44:50;;;;;;;29.08;18.77;;;;;;;;;;10529485;28;20100;-68
2022/03/18 10:49:54;;;;;;;26.17;16.90;;;;;;;;;;10548496;28;20031;-69
2022/03/18 10:55:02;;;;;;;29.23;18.85;;;;;;;;;;10533021;28;20504;-69
2022/03/18 11:00:07;;;;;;;31.20;19.17;;;;;;;;;;10537550;27;20103;-68
2022/03/18 11:05:11;;;;;;;27.85;16.25;;;;;;;;;;10562020;27;20032;-68
2022/03/18 11:15:39;;;;;;;30.30;17.17;;;;;;;;;;10531778;28;20096;-71
2022/03/18 11:20:43;;;;;;;28.63;17.05;;;;;;;;;;10547702;28;20032;-72
2022/03/18 11:25:47;;;;;;;31.58;16.33;;;;;;;;;;10559371;28;20104;-72
2022/03/18 11:31:01;;;;;;;27.10;15.80;;;;;;;;;;10563978;28;20032;-72
2022/03/18 11:36:09;;;;;;;32.40;17.52;;;;;;;;;;10528222;28;20058;-72
2022/03/18 11:41:11;;;;;;;28.58;17.17;;;;;;;;;;10554611;28;20031;-71
2022/03/18 11:46:22;;;;;;;26.90;16.40;;;;;;;;;;10553965;28;20035;-70
2022/03/18 11:51:28;;;;;;;31.73;16.95;;;;;;;;;;10535004;28;20687;-71
2022/03/18 11:56:47;;;;;;;27.95;17.02;;;;;;;;;;10535125;28;20112;-73
2022/03/18 12:01:53;;;;;;;26.45;17.40;;;;;;;;;;10533685;28;20407;-75
2022/03/18 12:07:13;;;;;;;26.45;17.00;;;;;;;;;;10529620;28;20407;-72
2022/03/18 12:12:17;;;;;;;28.23;17.17;;;;;;;;;;10531426;28;20048;-72
2022/03/18 12:17:24;;;;;;;25.08;15.25;;;;;;;;;;10548535;28;20379;-72
2022/03/18 12:22:29;;;;;;;25.20;16.05;;;;;;;;;;10534120;27;20349;-71
2022/03/18 12:27:36;;;;;;;26.70;15.82;;;;;;;;;;10555864;27;20150;-71
2022/03/18 12:32:38;;;;;;;;;;;;;;;;;;10539769;27;20135;-68
2022/03/18 12:37:45;;;;;;;27.67;15.32;;;;;;;;;;10544826;22;19931;-74
2022/03/18 12:42:49;;;;;;;27.30;15.98;;;;;;;;;;10525616;28;20089;-74
2022/03/18 12:47:54;;;;;;;27.33;15.13;;;;;;;;;;10487196;28;20119;-73
2022/03/18 12:53:00;;;;;;;29.63;13.93;;;;;;;;;;10493820;28;20520;-73
2022/03/18 12:58:04;;;;;;;26.83;14.05;;;;;;;;;;10481581;28;20029;-74
2022/03/18 13:03:09;;;;;;;32.28;15.48;;;;;;;;;;10476052;28;20048;-75
2022/03/18 13:08:16;;;;;;;24.50;14.35;;;;;;;;;;10499666;28;20452;-75
2022/03/18 13:13:19;;;;;;;30.75;13.98;;;;;;;;;;10454659;28;20175;-73
2022/03/18 13:18:24;;;;;;;25.23;13.98;;;;;;;;;;10472230;28;20123;-74
2022/03/18 13:23:26;;;;;;;;;;;;;;;;;;10484244;28;20143;-74
2022/03/18 13:28:29;;;;;;;;;;;;;;;;;;10495411;28;19924;-74
2022/03/18 13:33:32;;;;;;;;;;;;;;;;;;10471368;28;19959;-73
2022/03/18 13:38:36;;;;;;;;;;;;;;;;;;10462601;28;19929;-74
2022/03/18 13:43:40;;;;;;;25.75;12.27;;;;;;;;;;10454581;28;19931;-73
2022/03/18 13:48:44;;;;;;;28.27;14.45;;;;;;;;;;10468189;28;20040;-73
2022/03/18 13:53:48;;;;;;;27.05;14.18;;;;;;;;;;10459813;28;20044;-73
2022/03/18 13:58:52;;;;;;;25.85;14.38;;;;;;;;;;10447155;28;20040;-74
2022/03/18 14:04:00;;;;;;;29.73;14.82;;;;;;;;;;10463683;28;20033;-74
2022/03/18 14:09:13;;;;;;;25.60;13.50;;;;;;;;;;10466791;28;20514;-72
2022/03/18 14:14:21;;;;;;;25.80;13.33;;;;;;;;;;10449978;28;20044;-71
2022/03/18 14:19:40;;;;;;;26.95;14.32;;;;;;;;;;10456017;28;20222;-74
2022/03/18 14:24:43;;;;;;;27.10;13.32;;;;;;;;;;10483270;28;20572;-72
2022/03/18 14:29:50;;;;;;;25.77;12.07;;;;;;;;;;10456045;28;20414;-74
2022/03/18 14:34:55;;;;;;;27.42;12.23;;;;;;;;;;10473450;28;20032;-74
2022/03/18 14:39:59;;;;;;;26.48;11.88;;;;;;;;;;10463538;28;20044;-74
2022/03/18 14:45:04;;;;;;;22.67;11.95;;;;;;;;;;10482525;28;20032;-73
2022/03/18 14:50:09;;;;;;;22.38;12.20;;;;;;;;;;10458656;28;20047;-73
2022/03/18 15:00:34;;;;;;;36.92;12.98;;;;;;;;;;10480547;28;20468;-75
2022/03/18 15:05:42;;;;;;;24.58;12.75;;;;;;;;;;10469185;28;20040;-72
2022/03/18 15:10:45;;;;;;;20.88;10.68;;;;;;;;;;10479227;28;20032;-73
2022/03/18 15:15:49;;;;;;;24.08;10.30;;;;;;;;;;10457291;28;20508;-72
2022/03/18 15:20:57;;;;;;;19.33;8.45;;;;;;;;;;10457984;28;20064;-74
2022/03/18 15:26:02;;;;;;;18.98;9.48;;;;;;;;;;10467218;28;20040;-73
2022/03/18 15:31:08;;;;;;;20.40;8.15;;;;;;;;;;10477944;28;20040;-74
2022/03/18 15:36:10;;;;;;;16.30;8.45;;;;;;;;;;10476576;28;20048;-72
2022/03/18 15:41:13;;;;;;;21.53;10.57;;;;;;;;;;10490483;28;20060;-73
2022/03/18 15:46:21;;;;;;;18.70;9.90;;;;;;;;;;10469052;28;20799;-75
2022/03/18 15:51:25;;;;;;;23.85;10.77;;;;;;;;;;10466772;28;20032;-74
2022/03/18 15:56:28;;;;;;;18.27;7.95;;;;;;;;;;10468424;28;20040;-74
2022/03/18 16:01:33;;;;;;;20.67;10.15;;;;;;;;;;10485867;28;20544;-74
2022/03/18 16:06:36;;;;;;;20.50;9.52;;;;;;;;;;10468528;28;20783;-75
2022/03/18 16:11:39;;;;;;;21.93;10.40;;;;;;;;;;10474166;28;20036;-73
2022/03/18 16:16:44;;;;;;;21.85;10.70;;;;;;;;;;10477073;28;20289;-72
2022/03/18 16:21:47;;;;;;;17.30;6.80;;;;;;;;;;10475290;28;20092;-73
2022/03/18 16:26:57;;;;;;;20.30;9.68;;;;;;;;;;10465378;28;20235;-73
2022/03/18 16:32:03;;;;;;;17.77;8.48;;;;;;;;;;10471747;28;20041;-75
2022/03/18 16:37:06;;;;;;;23.38;9.23;;;;;;;;;;10465457;28;20045;-73
2022/03/18 16:42:09;;;;;;;21.85;9.23;;;;;;;;;;10465777;28;20132;-75
2022/03/18 16:52:34;;;;;;;20.73;9.32;;;;;;;;;;10474817;28;20504;-73
2022/03/18 16:57:37;;;;;;;18.70;8.63;;;;;;;;;;10455481;28;20057;-74
2022/03/18 17:02:41;;;;;;;24.17;8.65;;;;;;;;;;10466492;28;20496;-74
2022/03/18 17:07:45;;;;;;;22.88;9.60;;;;;;;;;;10474329;28;20481;-73
2022/03/18 17:12:49;;;;;;;19.35;9.07;;;;;;;;;;10451770;28;20451;-72
2022/03/18 17:17:53;;;;;;;19.30;8.65;;;;;;;;;;10459565;28;20032;-72
2022/03/18 17:22:56;;;;;;;21.17;9.38;;;;;;;;;;10455654;28;20048;-73
2022/03/18 17:28:19;;;;;;;23.92;9.73;;;;;;;;;;10467107;28;20102;-73
2022/03/18 17:33:24;;;;;;;25.75;9.85;;;;;;;;;;10470260;28;20071;-74
2022/03/18 17:38:27;;;;;;;;;;;;;;;;;;10455741;28;20043;-74
2022/03/18 17:43:31;;;;;;;23.42;10.07;;;;;;;;;;10476075;28;19965;-74
2022/03/18 17:48:35;;;;;;;25.75;11.00;;;;;;;;;;10462025;28;20048;-74
2022/03/18 17:53:39;;;;;;;27.48;10.70;;;;;;;;;;10487186;28;20028;-73
2022/03/18 17:58:47;;;;;;;24.33;10.52;;;;;;;;;;10476728;28;20040;-73
2022/03/18 18:03:52;;;;;;;25.20;10.37;;;;;;;;;;10472823;28;20037;-72
2022/03/18 18:08:56;;;;;;;17.52;9.00;;;;;;;;;;10450708;28;20043;-73
2022/03/18 18:13:59;;;;;;;21.97;9.67;;;;;;;;;;10460956;28;20086;-72
2022/03/18 18:21:56;;;;;;;23.20;9.13;;;;;;;;;;10448197;28;20040;-72
2022/03/18 18:24:34;;;;;;;23.60;9.15;;;;;;;;;;10482072;28;20033;-74
2022/03/18 18:29:37;;;;;;;19.55;8.82;;;;;;;;;;10468094;28;20135;-74
2022/03/18 18:34:43;;;;;;;24.88;10.30;;;;;;;;;;10471760;28;20062;-75
2022/03/18 18:39:47;;;;;;;20.98;9.13;;;;;;;;;;10489393;28;20543;-72
2022/03/18 18:44:50;;;;;;;18.15;9.02;;;;;;;;;;10507225;28;20036;-73
2022/03/18 18:49:55;;;;;;;23.48;9.95;;;;;;;;;;10473735;28;20516;-74
2022/03/18 18:55:00;;;;;;;20.02;8.88;;;;;;;;;;10453342;28;20533;-73
2022/03/18 19:00:04;;;;;;;23.05;8.57;;;;;;;;;;10490072;28;20071;-72
2022/03/18 19:05:08;;;;;;;20.23;9.13;;;;;;;;;;10467226;28;20044;-72
2022/03/18 19:10:12;;;;;;;18.55;7.55;;;;;;;;;;10469645;28;20036;-72
2022/03/18 19:15:16;;;;;;;21.55;8.68;;;;;;;;;;10493525;28;20391;-71
2022/03/18 19:20:21;;;;;;;24.58;10.13;;;;;;;;;;10487407;28;20048;-73
2022/03/18 19:25:36;;;;;;;28.60;10.40;;;;;;;;;;10480082;28;20037;-72
2022/03/18 19:30:39;;;;;;;22.40;9.82;;;;;;;;;;10438029;28;20047;-71
2022/03/18 19:35:44;;;;;;;23.57;10.57;;;;;;;;;;10450631;28;20041;-69
2022/03/18 19:40:47;;;;;;;25.80;10.02;;;;;;;;;;10462373;28;20124;-71
2022/03/18 19:45:50;;;;;;;29.60;11.17;;;;;;;;;;10449112;28;20033;-72
2022/03/18 19:50:55;;;;;;;22.73;9.80;;;;;;;;;;10426018;28;20040;-70
2022/03/18 20:01:18;;;;;;;24.80;10.40;;;;;;;;;;10438429;28;20717;-70
2022/03/18 20:06:23;;;;;;;25.38;10.25;;;;;;;;;;10467339;28;20041;-72
2022/03/18 20:11:26;;;;;;;;;;;;;;;;;;10444114;28;20037;-70
2022/03/18 20:16:29;;;;;;;23.13;9.52;;;;;;;;;;10431655;28;20377;-71
2022/03/18 20:21:34;;;;;;;23.05;9.13;;;;;;;;;;10450464;28;20029;-71
2022/03/18 20:26:37;;;;;;;25.38;9.35;;;;;;;;;;10425745;28;20087;-71
2022/03/18 20:31:41;;;;;;;18.23;8.75;;;;;;;;;;10427227;28;20086;-70
2022/03/18 20:36:45;;;;;;;26.15;11.35;;;;;;;;;;10447186;28;20048;-72
2022/03/18 20:41:48;;;;;;;29.58;10.13;;;;;;;;;;10436822;28;20040;-71
2022/03/18 20:46:52;;;;;;;24.60;8.98;;;;;;;;;;10441117;28;20033;-70
2022/03/18 20:51:56;;;;;;;23.70;9.32;;;;;;;;;;10433384;28;20045;-71
2022/03/18 20:57:00;;;;;;;28.55;10.15;;;;;;;;;;10437775;28;20072;-71
2022/03/18 21:02:04;;;;;;;19.45;8.02;;;;;;;;;;10459435;28;20171;-71
2022/03/18 21:07:08;;;;;;;27.60;10.52;;;;;;;;;;10425653;28;20575;-70
2022/03/18 21:12:11;;;;;;;29.92;10.38;;;;;;;;;;10449179;28;20124;-68
2022/03/18 21:17:27;;;;;;;24.15;9.30;;;;;;;;;;10443260;28;20029;-71
2022/03/18 21:22:35;;;;;;;27.35;10.05;;;;;;;;;;10430648;28;20063;-72
2022/03/18 21:32:59;;;;;;;25.70;9.70;;;;;;;;;;10443418;28;20297;-72
2022/03/18 21:38:03;;;;;;;26.30;10.05;;;;;;;;;;10424820;28;20434;-71
2022/03/18 21:43:06;;;;;;;26.40;10.85;;;;;;;;;;10445684;28;20251;-72
2022/03/18 21:48:09;;;;;;;25.17;10.65;;;;;;;;;;10426047;28;20063;-70
2022/03/18 21:53:15;;;;;;;26.02;10.05;;;;;;;;;;10447891;28;20041;-71
2022/03/18 21:58:18;;;;;;;30.40;10.52;;;;;;;;;;10446306;28;20512;-73
2022/03/18 22:03:21;;;;;;;25.10;9.93;;;;;;;;;;10453008;28;20045;-73
2022/03/18 22:08:25;;;;;;;24.63;10.52;;;;;;;;;;10448756;28;20455;-71
2022/03/18 22:13:28;;;;;;;;;;;;;;;;;;10447605;28;20040;-71
2022/03/18 22:18:31;;;;;;;25.00;9.57;;;;;;;;;;10442101;28;19921;-71
2022/03/18 22:23:35;;;;;;;22.33;8.05;;;;;;;;;;10448070;28;20557;-71
2022/03/18 22:28:38;;;;;;;24.65;9.82;;;;;;;;;;10442445;28;20578;-71
2022/03/18 22:33:41;;;;;;;27.17;11.07;;;;;;;;;;10428982;28;20396;-72
2022/03/18 22:38:45;;;;;;;23.98;9.75;;;;;;;;;;10439997;28;20041;-72
2022/03/18 22:43:48;;;;;;;;;;;;;;;;;;10429436;28;20048;-71
2022/03/18 22:48:51;;;;;;;26.48;11.27;;;;;;;;;;10449792;28;19920;-70
2022/03/18 22:53:56;;;;;;;25.88;10.18;;;;;;;;;;10435063;28;20490;-70
2022/03/18 22:58:59;;;;;;;27.80;10.52;;;;;;;;;;10445872;28;20037;-71
2022/03/18 23:04:02;;;;;;;25.17;10.77;;;;;;;;;;10444599;28;20044;-73
2022/03/18 23:09:06;;;;;;;28.95;10.70;;;;;;;;;;10447179;28;20541;-71
2022/03/18 23:14:09;;;;;;;29.37;9.93;;;;;;;;;;10420452;28;20033;-73
2022/03/18 23:19:13;;;;;;;29.35;11.35;;;;;;;;;;10449421;28;20042;-71
2022/03/18 23:24:17;;;;;;;27.05;11.07;;;;;;;;;;10427512;28;20037;-71
2022/03/18 23:29:20;;;;;;;;;;;;;;;;;;10426661;28;20045;-71
2022/03/18 23:34:22;;;;;;;;;;;;;;;;;;10441136;28;19932;-71
2022/03/18 23:39:26;;;;;;;;;;;;;;;;;;10411640;28;19934;-71
2022/03/18 23:44:29;;;;;;;;;;;;;;;;;;10420894;28;20343;-72
2022/03/18 23:49:32;;;;;;;;;;;;;;;;;;10438323;28;19920;-71
2022/03/18 23:54:37;;;;;;;31.03;11.67;;;;;;;;;;10427335;28;19960;-72
2022/03/18 23:59:40;;;;;;;31.60;11.77;;;;;;;;;;10440003;28;20037;-74
